Terminal Aerodrome Forecast
Issued by NWS Wilmington, NC

Home | Current Version | Previous Version | Text Only | Print | Product List | Glossary On
Versions: 1 2 3 4 5 6 7 8 9 10 11 12 13 14
018
FTUS42 KILM 152327
TAFFLO
TAF
KFLO 152327Z 1600/1624 31003KT P6SM BKN140
     FM160400 VRB03KT P6SM SCT250
     FM161500 09005KT P6SM SCT250
     FM161800 21005KT P6SM SKC=

USA.gov is the U.S. government's official web portal to all federal, state and local government web resources and services.